sensor_id;sensor_type;location;lat;lon;timestamp;temperature;humidity
22132;DHT22;11232;51.748;19.390;2022-10-16T00:01:16;13.80;99.90
22132;DHT22;11232;51.748;19.390;2022-10-16T00:03:43;13.80;99.90
22132;DHT22;11232;51.748;19.390;2022-10-16T00:06:10;13.80;99.90
22132;DHT22;11232;51.748;19.390;2022-10-16T00:08:36;13.80;99.90
22132;DHT22;11232;51.748;19.390;2022-10-16T00:11:05;13.70;99.90
22132;DHT22;11232;51.748;19.390;2022-10-16T00:13:32;13.70;99.90
22132;DHT22;11232;51.748;19.390;2022-10-16T00:15:59;13.70;99.90
22132;DHT22;11232;51.748;19.390;2022-10-16T00:18:25;13.60;99.90
22132;DHT22;11232;51.748;19.390;2022-10-16T00:20:51;13.60;99.90
22132;DHT22;11232;51.748;19.390;2022-10-16T00:23:16;13.50;99.90
22132;DHT22;11232;51.748;19.390;2022-10-16T00:25:42;13.40;99.90
22132;DHT22;11232;51.748;19.390;2022-10-16T00:28:07;13.40;99.90
22132;DHT22;11232;51.748;19.390;2022-10-16T00:30:33;13.30;99.90
22132;DHT22;11232;51.748;19.390;2022-10-16T00:32:59;13.60;99.90
22132;DHT22;11232;51.748;19.390;2022-10-16T00:35:25;13.40;99.90
22132;DHT22;11232;51.748;19.390;2022-10-16T00:37:50;13.20;99.90
22132;DHT22;11232;51.748;19.390;2022-10-16T00:40:16;13.10;99.90
22132;DHT22;11232;51.748;19.390;2022-10-16T00:42:42;13.00;99.90
22132;DHT22;11232;51.748;19.390;2022-10-16T00:45:09;13.00;99.90
22132;DHT22;11232;51.748;19.390;2022-10-16T00:47:42;13.00;99.90
22132;DHT22;11232;51.748;19.390;2022-10-16T00:50:30;12.90;99.90
22132;DHT22;11232;51.748;19.390;2022-10-16T00:52:57;12.90;99.90
22132;DHT22;11232;51.748;19.390;2022-10-16T00:55:24;13.00;99.90
22132;DHT22;11232;51.748;19.390;2022-10-16T00:57:51;12.90;99.90
22132;DHT22;11232;51.748;19.390;2022-10-16T01:00:22;12.80;99.90
22132;DHT22;11232;51.748;19.390;2022-10-16T01:02:56;12.80;99.90
22132;DHT22;11232;51.748;19.390;2022-10-16T01:05:39;12.80;99.90
22132;DHT22;11232;51.748;19.390;2022-10-16T01:08:16;12.70;99.90
22132;DHT22;11232;51.748;19.390;2022-10-16T01:11:15;12.70;99.90
22132;DHT22;11232;51.748;19.390;2022-10-16T01:13:46;12.70;99.90
22132;DHT22;11232;51.748;19.390;2022-10-16T01:21:40;12.60;99.90
22132;DHT22;11232;51.748;19.390;2022-10-16T01:32:57;12.60;99.90
22132;DHT22;11232;51.748;19.390;2022-10-16T01:35:34;12.60;99.90
22132;DHT22;11232;51.748;19.390;2022-10-16T01:38:12;12.50;99.90
22132;DHT22;11232;51.748;19.390;2022-10-16T01:40:43;12.50;99.90
22132;DHT22;11232;51.748;19.390;2022-10-16T01:43:17;12.70;99.90
22132;DHT22;11232;51.748;19.390;2022-10-16T01:45:45;12.40;99.90
22132;DHT22;11232;51.748;19.390;2022-10-16T01:48:14;12.40;99.90
22132;DHT22;11232;51.748;19.390;2022-10-16T01:50:43;12.40;99.90
22132;DHT22;11232;51.748;19.390;2022-10-16T01:53:11;12.30;99.90
22132;DHT22;11232;51.748;19.390;2022-10-16T01:55:40;12.30;99.90
22132;DHT22;11232;51.748;19.390;2022-10-16T01:58:10;12.20;99.90
22132;DHT22;11232;51.748;19.390;2022-10-16T02:00:38;12.20;99.90
22132;DHT22;11232;51.748;19.390;2022-10-16T02:03:05;12.20;99.90
22132;DHT22;11232;51.748;19.390;2022-10-16T02:05:37;12.10;99.90
22132;DHT22;11232;51.748;19.390;2022-10-16T02:08:05;12.20;99.90
22132;DHT22;11232;51.748;19.390;2022-10-16T02:10:30;12.30;99.90
22132;DHT22;11232;51.748;19.390;2022-10-16T02:13:17;12.10;99.90
22132;DHT22;11232;51.748;19.390;2022-10-16T02:15:45;12.20;99.90
22132;DHT22;11232;51.748;19.390;2022-10-16T02:18:11;12.10;99.90
22132;DHT22;11232;51.748;19.390;2022-10-16T02:21:01;12.10;99.90
22132;DHT22;11232;51.748;19.390;2022-10-16T02:23:52;12.10;99.90
22132;DHT22;11232;51.748;19.390;2022-10-16T02:26:33;12.10;99.90
22132;DHT22;11232;51.748;19.390;2022-10-16T02:29:03;12.10;99.90
22132;DHT22;11232;51.748;19.390;2022-10-16T02:31:33;12.00;99.90
22132;DHT22;11232;51.748;19.390;2022-10-16T02:34:03;12.00;99.90
22132;DHT22;11232;51.748;19.390;2022-10-16T02:36:31;12.00;99.90
22132;DHT22;11232;51.748;19.390;2022-10-16T02:38:58;12.00;99.90
22132;DHT22;11232;51.748;19.390;2022-10-16T02:41:25;12.10;99.90
22132;DHT22;11232;51.748;19.390;2022-10-16T02:43:51;12.10;99.90
22132;DHT22;11232;51.748;19.390;2022-10-16T02:46:17;12.10;99.90
22132;DHT22;11232;51.748;19.390;2022-10-16T02:48:43;12.10;99.90
22132;DHT22;11232;51.748;19.390;2022-10-16T02:51:09;12.20;99.90
22132;DHT22;11232;51.748;19.390;2022-10-16T02:53:35;12.10;99.90
22132;DHT22;11232;51.748;19.390;2022-10-16T02:56:01;12.10;99.90
22132;DHT22;11232;51.748;19.390;2022-10-16T02:58:26;12.20;99.90
22132;DHT22;11232;51.748;19.390;2022-10-16T03:00:52;12.10;99.90
22132;DHT22;11232;51.748;19.390;2022-10-16T03:03:18;12.10;99.90
22132;DHT22;11232;51.748;19.390;2022-10-16T03:05:44;12.10;99.90
22132;DHT22;11232;51.748;19.390;2022-10-16T03:08:11;12.10;99.90
22132;DHT22;11232;51.748;19.390;2022-10-16T03:10:37;12.20;99.90
22132;DHT22;11232;51.748;19.390;2022-10-16T03:13:03;12.10;99.90
22132;DHT22;11232;51.748;19.390;2022-10-16T03:15:28;12.20;99.90
22132;DHT22;11232;51.748;19.390;2022-10-16T03:17:54;12.20;99.90
22132;DHT22;11232;51.748;19.390;2022-10-16T03:20:20;12.20;99.90
22132;DHT22;11232;51.748;19.390;2022-10-16T03:22:46;12.40;99.90
22132;DHT22;11232;51.748;19.390;2022-10-16T03:25:11;12.70;99.90
22132;DHT22;11232;51.748;19.390;2022-10-16T03:27:37;12.20;99.90
22132;DHT22;11232;51.748;19.390;2022-10-16T03:30:03;12.30;99.90
22132;DHT22;11232;51.748;19.390;2022-10-16T03:32:28;12.30;99.90
22132;DHT22;11232;51.748;19.390;2022-10-16T03:34:54;12.40;99.90
22132;DHT22;11232;51.748;19.390;2022-10-16T03:37:21;12.30;99.90
22132;DHT22;11232;51.748;19.390;2022-10-16T03:39:47;12.40;99.90
22132;DHT22;11232;51.748;19.390;2022-10-16T03:42:12;12.40;99.90
22132;DHT22;11232;51.748;19.390;2022-10-16T03:44:38;12.40;99.90
22132;DHT22;11232;51.748;19.390;2022-10-16T03:47:04;12.40;99.90
22132;DHT22;11232;51.748;19.390;2022-10-16T03:49:29;12.40;99.90
22132;DHT22;11232;51.748;19.390;2022-10-16T03:51:55;12.40;99.90
22132;DHT22;11232;51.748;19.390;2022-10-16T03:54:20;12.40;99.90
22132;DHT22;11232;51.748;19.390;2022-10-16T03:56:47;12.40;99.90
22132;DHT22;11232;51.748;19.390;2022-10-16T03:59:13;12.50;99.90
22132;DHT22;11232;51.748;19.390;2022-10-16T04:01:39;12.50;99.90
22132;DHT22;11232;51.748;19.390;2022-10-16T04:04:04;12.50;99.90
22132;DHT22;11232;51.748;19.390;2022-10-16T04:06:30;12.50;99.90
22132;DHT22;11232;51.748;19.390;2022-10-16T04:08:55;12.50;99.90
22132;DHT22;11232;51.748;19.390;2022-10-16T04:11:21;12.50;99.90
22132;DHT22;11232;51.748;19.390;2022-10-16T04:13:47;12.50;99.90
22132;DHT22;11232;51.748;19.390;2022-10-16T04:16:13;12.50;99.90
22132;DHT22;11232;51.748;19.390;2022-10-16T04:18:38;12.60;99.90
22132;DHT22;11232;51.748;19.390;2022-10-16T04:21:05;12.50;99.90
22132;DHT22;11232;51.748;19.390;2022-10-16T04:23:31;12.50;99.90
22132;DHT22;11232;51.748;19.390;2022-10-16T04:25:57;12.60;99.90
22132;DHT22;11232;51.748;19.390;2022-10-16T04:28:22;12.60;99.90
22132;DHT22;11232;51.748;19.390;2022-10-16T04:30:48;12.60;99.90
22132;DHT22;11232;51.748;19.390;2022-10-16T04:33:13;12.70;99.90
22132;DHT22;11232;51.748;19.390;2022-10-16T04:35:39;12.70;99.90
22132;DHT22;11232;51.748;19.390;2022-10-16T04:38:05;12.70;99.90
22132;DHT22;11232;51.748;19.390;2022-10-16T04:40:30;12.70;99.90
22132;DHT22;11232;51.748;19.390;2022-10-16T04:43:02;12.70;99.90
22132;DHT22;11232;51.748;19.390;2022-10-16T04:45:27;12.70;99.90
22132;DHT22;11232;51.748;19.390;2022-10-16T04:47:57;12.70;99.90
22132;DHT22;11232;51.748;19.390;2022-10-16T04:50:22;12.80;99.90
22132;DHT22;11232;51.748;19.390;2022-10-16T04:52:48;12.80;99.90
22132;DHT22;11232;51.748;19.390;2022-10-16T04:55:14;13.20;99.90
22132;DHT22;11232;51.748;19.390;2022-10-16T04:57:40;12.90;99.90
22132;DHT22;11232;51.748;19.390;2022-10-16T05:00:06;12.90;99.90
22132;DHT22;11232;51.748;19.390;2022-10-16T05:02:33;13.00;99.90
22132;DHT22;11232;51.748;19.390;2022-10-16T05:04:59;13.00;99.90
22132;DHT22;11232;51.748;19.390;2022-10-16T05:07:24;13.10;99.90
22132;DHT22;11232;51.748;19.390;2022-10-16T05:09:50;13.10;99.90
22132;DHT22;11232;51.748;19.390;2022-10-16T05:12:15;13.00;99.90
22132;DHT22;11232;51.748;19.390;2022-10-16T05:14:41;13.30;99.90
22132;DHT22;11232;51.748;19.390;2022-10-16T05:17:06;13.20;99.90
22132;DHT22;11232;51.748;19.390;2022-10-16T05:19:32;13.20;99.90
22132;DHT22;11232;51.748;19.390;2022-10-16T05:21:58;13.20;99.90
22132;DHT22;11232;51.748;19.390;2022-10-16T05:24:23;13.20;99.90
22132;DHT22;11232;51.748;19.390;2022-10-16T05:26:50;13.20;99.90
22132;DHT22;11232;51.748;19.390;2022-10-16T05:29:15;13.20;99.90
22132;DHT22;11232;51.748;19.390;2022-10-16T05:31:41;13.30;99.90
22132;DHT22;11232;51.748;19.390;2022-10-16T05:34:06;13.50;99.90
22132;DHT22;11232;51.748;19.390;2022-10-16T05:36:32;13.30;99.90
22132;DHT22;11232;51.748;19.390;2022-10-16T05:38:57;13.30;99.90
22132;DHT22;11232;51.748;19.390;2022-10-16T05:41:23;13.50;99.90
22132;DHT22;11232;51.748;19.390;2022-10-16T05:43:51;13.40;99.90
22132;DHT22;11232;51.748;19.390;2022-10-16T05:46:17;13.40;99.90
22132;DHT22;11232;51.748;19.390;2022-10-16T05:48:43;13.80;99.90
22132;DHT22;11232;51.748;19.390;2022-10-16T05:51:13;13.50;99.90
22132;DHT22;11232;51.748;19.390;2022-10-16T05:53:40;13.50;99.90
22132;DHT22;11232;51.748;19.390;2022-10-16T05:56:07;13.50;99.90
22132;DHT22;11232;51.748;19.390;2022-10-16T05:58:35;13.50;99.90
22132;DHT22;11232;51.748;19.390;2022-10-16T06:01:04;13.60;99.90
22132;DHT22;11232;51.748;19.390;2022-10-16T06:03:30;13.60;99.90
22132;DHT22;11232;51.748;19.390;2022-10-16T06:05:55;13.60;99.90
22132;DHT22;11232;51.748;19.390;2022-10-16T06:08:22;13.70;99.90
22132;DHT22;11232;51.748;19.390;2022-10-16T06:10:48;13.70;99.90
22132;DHT22;11232;51.748;19.390;2022-10-16T06:13:14;13.70;99.90
22132;DHT22;11232;51.748;19.390;2022-10-16T06:15:42;13.70;99.90
22132;DHT22;11232;51.748;19.390;2022-10-16T06:18:08;13.90;99.90
22132;DHT22;11232;51.748;19.390;2022-10-16T06:20:35;13.80;99.90
22132;DHT22;11232;51.748;19.390;2022-10-16T06:23:00;13.90;99.90
22132;DHT22;11232;51.748;19.390;2022-10-16T06:25:26;14.10;99.90
22132;DHT22;11232;51.748;19.390;2022-10-16T06:27:51;14.00;99.90
22132;DHT22;11232;51.748;19.390;2022-10-16T06:30:17;14.10;99.90
22132;DHT22;11232;51.748;19.390;2022-10-16T06:32:42;14.30;99.90
22132;DHT22;11232;51.748;19.390;2022-10-16T06:35:08;14.60;99.90
22132;DHT22;11232;51.748;19.390;2022-10-16T06:37:34;15.10;99.90
22132;DHT22;11232;51.748;19.390;2022-10-16T06:39:59;15.70;99.90
22132;DHT22;11232;51.748;19.390;2022-10-16T06:42:25;16.10;99.90
22132;DHT22;11232;51.748;19.390;2022-10-16T06:44:51;16.40;99.90
22132;DHT22;11232;51.748;19.390;2022-10-16T06:47:17;16.60;99.90
22132;DHT22;11232;51.748;19.390;2022-10-16T06:49:43;17.00;99.90
22132;DHT22;11232;51.748;19.390;2022-10-16T06:52:08;17.30;99.90
22132;DHT22;11232;51.748;19.390;2022-10-16T06:54:34;17.20;99.90
22132;DHT22;11232;51.748;19.390;2022-10-16T06:56:59;17.30;99.90
22132;DHT22;11232;51.748;19.390;2022-10-16T06:59:26;17.30;99.90
22132;DHT22;11232;51.748;19.390;2022-10-16T07:01:51;17.20;99.90
22132;DHT22;11232;51.748;19.390;2022-10-16T07:04:17;17.10;99.90
22132;DHT22;11232;51.748;19.390;2022-10-16T07:06:43;16.80;99.90
22132;DHT22;11232;51.748;19.390;2022-10-16T07:09:09;16.60;99.90
22132;DHT22;11232;51.748;19.390;2022-10-16T07:11:37;16.30;99.90
22132;DHT22;11232;51.748;19.390;2022-10-16T07:14:04;16.10;99.90
22132;DHT22;11232;51.748;19.390;2022-10-16T07:16:32;16.30;99.90
22132;DHT22;11232;51.748;19.390;2022-10-16T07:19:00;16.40;99.90
22132;DHT22;11232;51.748;19.390;2022-10-16T07:21:28;16.60;99.90
22132;DHT22;11232;51.748;19.390;2022-10-16T07:24:00;16.80;99.90
22132;DHT22;11232;51.748;19.390;2022-10-16T07:26:33;17.60;99.90
22132;DHT22;11232;51.748;19.390;2022-10-16T07:28:59;18.50;99.90
22132;DHT22;11232;51.748;19.390;2022-10-16T07:31:26;19.00;99.90
22132;DHT22;11232;51.748;19.390;2022-10-16T07:33:52;20.00;99.90
22132;DHT22;11232;51.748;19.390;2022-10-16T07:36:19;21.10;99.90
22132;DHT22;11232;51.748;19.390;2022-10-16T07:38:46;21.60;99.90
22132;DHT22;11232;51.748;19.390;2022-10-16T07:41:17;23.10;99.90
22132;DHT22;11232;51.748;19.390;2022-10-16T07:43:51;23.50;99.90
22132;DHT22;11232;51.748;19.390;2022-10-16T07:46:18;23.70;99.30
22132;DHT22;11232;51.748;19.390;2022-10-16T07:48:44;23.80;98.00
22132;DHT22;11232;51.748;19.390;2022-10-16T07:51:13;23.60;97.20
22132;DHT22;11232;51.748;19.390;2022-10-16T07:53:39;22.40;99.90
22132;DHT22;11232;51.748;19.390;2022-10-16T07:56:06;21.50;99.90
22132;DHT22;11232;51.748;19.390;2022-10-16T07:58:33;21.00;99.90
22132;DHT22;11232;51.748;19.390;2022-10-16T08:01:03;20.80;99.90
22132;DHT22;11232;51.748;19.390;2022-10-16T08:03:28;19.70;99.90
22132;DHT22;11232;51.748;19.390;2022-10-16T08:05:56;19.30;99.90
22132;DHT22;11232;51.748;19.390;2022-10-16T08:08:22;18.70;99.90
22132;DHT22;11232;51.748;19.390;2022-10-16T08:10:48;18.60;99.90
22132;DHT22;11232;51.748;19.390;2022-10-16T08:13:14;18.20;99.90
22132;DHT22;11232;51.748;19.390;2022-10-16T08:15:44;17.80;99.90
22132;DHT22;11232;51.748;19.390;2022-10-16T08:18:11;17.60;99.90
22132;DHT22;11232;51.748;19.390;2022-10-16T08:20:37;17.50;99.90
22132;DHT22;11232;51.748;19.390;2022-10-16T08:23:02;17.30;99.90
22132;DHT22;11232;51.748;19.390;2022-10-16T08:25:28;17.20;99.90
22132;DHT22;11232;51.748;19.390;2022-10-16T08:27:54;17.20;99.90
22132;DHT22;11232;51.748;19.390;2022-10-16T08:30:21;17.10;99.90
22132;DHT22;11232;51.748;19.390;2022-10-16T08:32:46;17.10;99.90
22132;DHT22;11232;51.748;19.390;2022-10-16T08:35:13;17.10;99.90
22132;DHT22;11232;51.748;19.390;2022-10-16T08:37:39;17.10;99.90
22132;DHT22;11232;51.748;19.390;2022-10-16T08:40:07;17.20;99.90
22132;DHT22;11232;51.748;19.390;2022-10-16T08:48:05;17.20;99.90
22132;DHT22;11232;51.748;19.390;2022-10-16T08:50:37;16.90;99.90
22132;DHT22;11232;51.748;19.390;2022-10-16T08:53:04;16.70;99.90
22132;DHT22;11232;51.748;19.390;2022-10-16T08:55:33;16.70;99.90
22132;DHT22;11232;51.748;19.390;2022-10-16T08:58:02;16.80;99.90
22132;DHT22;11232;51.748;19.390;2022-10-16T09:00:34;16.80;99.90
22132;DHT22;11232;51.748;19.390;2022-10-16T09:03:22;17.00;99.90
22132;DHT22;11232;51.748;19.390;2022-10-16T09:08:42;17.00;99.90
22132;DHT22;11232;51.748;19.390;2022-10-16T09:11:29;17.30;99.90
22132;DHT22;11232;51.748;19.390;2022-10-16T09:16:51;17.70;99.90
22132;DHT22;11232;51.748;19.390;2022-10-16T09:19:38;18.00;99.90
22132;DHT22;11232;51.748;19.390;2022-10-16T09:22:14;17.90;99.90
22132;DHT22;11232;51.748;19.390;2022-10-16T09:24:40;17.70;99.90
22132;DHT22;11232;51.748;19.390;2022-10-16T09:27:11;17.70;99.90
22132;DHT22;11232;51.748;19.390;2022-10-16T09:29:37;17.80;99.90
22132;DHT22;11232;51.748;19.390;2022-10-16T09:32:21;17.70;99.90
22132;DHT22;11232;51.748;19.390;2022-10-16T09:34:50;17.90;99.90
22132;DHT22;11232;51.748;19.390;2022-10-16T09:37:18;18.00;99.90
22132;DHT22;11232;51.748;19.390;2022-10-16T09:39:55;18.60;99.90
22132;DHT22;11232;51.748;19.390;2022-10-16T09:42:23;18.70;99.90
22132;DHT22;11232;51.748;19.390;2022-10-16T09:44:52;19.20;99.90
22132;DHT22;11232;51.748;19.390;2022-10-16T09:47:21;19.90;99.90
22132;DHT22;11232;51.748;19.390;2022-10-16T09:50:02;20.10;99.90
22132;DHT22;11232;51.748;19.390;2022-10-16T09:52:30;20.20;99.90
22132;DHT22;11232;51.748;19.390;2022-10-16T09:54:57;22.40;99.90
22132;DHT22;11232;51.748;19.390;2022-10-16T09:57:24;23.70;99.90
22132;DHT22;11232;51.748;19.390;2022-10-16T09:59:52;24.20;99.90
22132;DHT22;11232;51.748;19.390;2022-10-16T10:02:38;24.00;99.90
22132;DHT22;11232;51.748;19.390;2022-10-16T10:05:27;23.00;99.90
22132;DHT22;11232;51.748;19.390;2022-10-16T10:07:58;22.30;99.90
22132;DHT22;11232;51.748;19.390;2022-10-16T10:10:30;22.80;99.90
22132;DHT22;11232;51.748;19.390;2022-10-16T10:12:56;22.90;99.90
22132;DHT22;11232;51.748;19.390;2022-10-16T10:15:23;22.60;99.90
22132;DHT22;11232;51.748;19.390;2022-10-16T10:17:54;22.70;99.90
22132;DHT22;11232;51.748;19.390;2022-10-16T10:20:30;23.10;99.90
22132;DHT22;11232;51.748;19.390;2022-10-16T10:22:58;23.60;99.90
22132;DHT22;11232;51.748;19.390;2022-10-16T10:31:03;26.10;94.20
22132;DHT22;11232;51.748;19.390;2022-10-16T10:36:32;23.90;96.90
22132;DHT22;11232;51.748;19.390;2022-10-16T10:39:27;23.40;98.10
22132;DHT22;11232;51.748;19.390;2022-10-16T10:42:08;23.10;99.90
22132;DHT22;11232;51.748;19.390;2022-10-16T10:47:52;25.60;95.60
22132;DHT22;11232;51.748;19.390;2022-10-16T10:50:39;24.60;94.90
22132;DHT22;11232;51.748;19.390;2022-10-16T10:53:18;23.60;96.90
22132;DHT22;11232;51.748;19.390;2022-10-16T10:55:59;23.40;98.30
22132;DHT22;11232;51.748;19.390;2022-10-16T11:01:17;22.30;99.90
22132;DHT22;11232;51.748;19.390;2022-10-16T11:03:55;21.50;99.90
22132;DHT22;11232;51.748;19.390;2022-10-16T11:06:30;21.40;99.90
22132;DHT22;11232;51.748;19.390;2022-10-16T11:11:45;23.40;99.90
22132;DHT22;11232;51.748;19.390;2022-10-16T11:14:19;26.50;94.70
22132;DHT22;11232;51.748;19.390;2022-10-16T11:20:27;27.30;87.80
22132;DHT22;11232;51.748;19.390;2022-10-16T11:25:15;28.30;84.80
22132;DHT22;11232;51.748;19.390;2022-10-16T11:27:57;28.30;81.90
22132;DHT22;11232;51.748;19.390;2022-10-16T11:30:26;28.50;82.10
22132;DHT22;11232;51.748;19.390;2022-10-16T11:36:13;31.20;73.60
22132;DHT22;11232;51.748;19.390;2022-10-16T11:39:21;32.10;67.60
22132;DHT22;11232;51.748;19.390;2022-10-16T11:44:44;28.10;74.50
22132;DHT22;11232;51.748;19.390;2022-10-16T11:47:45;26.60;81.50
22132;DHT22;11232;51.748;19.390;2022-10-16T11:55:52;22.40;95.40
22132;DHT22;11232;51.748;19.390;2022-10-16T12:04:05;20.50;99.90
22132;DHT22;11232;51.748;19.390;2022-10-16T12:09:01;19.90;99.90
22132;DHT22;11232;51.748;19.390;2022-10-16T12:11:37;19.80;99.90
22132;DHT22;11232;51.748;19.390;2022-10-16T12:17:37;19.90;99.90
22132;DHT22;11232;51.748;19.390;2022-10-16T12:22:54;19.80;99.90
22132;DHT22;11232;51.748;19.390;2022-10-16T12:25:31;19.70;99.90
22132;DHT22;11232;51.748;19.390;2022-10-16T12:27:59;19.80;99.90
22132;DHT22;11232;51.748;19.390;2022-10-16T12:30:28;19.80;99.90
22132;DHT22;11232;51.748;19.390;2022-10-16T12:32:56;19.90;99.90
22132;DHT22;11232;51.748;19.390;2022-10-16T12:35:29;20.10;99.90
22132;DHT22;11232;51.748;19.390;2022-10-16T12:38:06;20.10;99.90
22132;DHT22;11232;51.748;19.390;2022-10-16T12:40:35;20.30;99.90
22132;DHT22;11232;51.748;19.390;2022-10-16T12:45:46;20.20;99.90
22132;DHT22;11232;51.748;19.390;2022-10-16T12:48:20;20.20;99.90
22132;DHT22;11232;51.748;19.390;2022-10-16T12:50:47;20.20;99.90
22132;DHT22;11232;51.748;19.390;2022-10-16T12:53:24;20.40;99.90
22132;DHT22;11232;51.748;19.390;2022-10-16T12:56:14;20.50;99.90
22132;DHT22;11232;51.748;19.390;2022-10-16T13:06:55;20.60;99.90
22132;DHT22;11232;51.748;19.390;2022-10-16T13:21:07;20.50;99.90
22132;DHT22;11232;51.748;19.390;2022-10-16T13:26:09;20.00;99.90
22132;DHT22;11232;51.748;19.390;2022-10-16T13:28:38;19.80;99.90
22132;DHT22;11232;51.748;19.390;2022-10-16T13:31:05;19.90;99.90
22132;DHT22;11232;51.748;19.390;2022-10-16T13:33:41;19.90;99.90
22132;DHT22;11232;51.748;19.390;2022-10-16T13:41:36;19.80;99.90
22132;DHT22;11232;51.748;19.390;2022-10-16T13:44:01;19.70;99.90
22132;DHT22;11232;51.748;19.390;2022-10-16T13:46:27;19.70;99.90
22132;DHT22;11232;51.748;19.390;2022-10-16T13:48:59;19.80;99.90
22132;DHT22;11232;51.748;19.390;2022-10-16T13:51:26;19.80;99.90
22132;DHT22;11232;51.748;19.390;2022-10-16T13:53:52;19.80;99.90
22132;DHT22;11232;51.748;19.390;2022-10-16T13:56:21;19.70;99.90
22132;DHT22;11232;51.748;19.390;2022-10-16T13:59:01;19.60;99.90
22132;DHT22;11232;51.748;19.390;2022-10-16T14:01:40;19.60;99.90
22132;DHT22;11232;51.748;19.390;2022-10-16T14:04:12;19.60;99.90
22132;DHT22;11232;51.748;19.390;2022-10-16T14:06:42;19.50;99.90
22132;DHT22;11232;51.748;19.390;2022-10-16T14:09:09;19.40;99.90
22132;DHT22;11232;51.748;19.390;2022-10-16T14:12:08;19.50;99.90
22132;DHT22;11232;51.748;19.390;2022-10-16T14:14:40;19.60;99.90
22132;DHT22;11232;51.748;19.390;2022-10-16T14:17:06;19.60;99.90
22132;DHT22;11232;51.748;19.390;2022-10-16T14:19:38;19.50;99.90
22132;DHT22;11232;51.748;19.390;2022-10-16T14:22:40;19.40;99.90
22132;DHT22;11232;51.748;19.390;2022-10-16T14:28:22;19.30;99.90
22132;DHT22;11232;51.748;19.390;2022-10-16T14:30:54;19.40;99.90
22132;DHT22;11232;51.748;19.390;2022-10-16T14:36:11;19.50;99.90
22132;DHT22;11232;51.748;19.390;2022-10-16T14:38:52;19.50;99.90
22132;DHT22;11232;51.748;19.390;2022-10-16T14:41:21;19.40;99.90
22132;DHT22;11232;51.748;19.390;2022-10-16T14:43:53;19.40;99.90
22132;DHT22;11232;51.748;19.390;2022-10-16T14:46:21;19.40;99.90
22132;DHT22;11232;51.748;19.390;2022-10-16T14:49:01;19.30;99.90
22132;DHT22;11232;51.748;19.390;2022-10-16T14:51:30;19.30;99.90
22132;DHT22;11232;51.748;19.390;2022-10-16T14:53:56;19.40;99.90
22132;DHT22;11232;51.748;19.390;2022-10-16T14:56:24;19.40;99.90
22132;DHT22;11232;51.748;19.390;2022-10-16T14:58:51;19.30;99.90
22132;DHT22;11232;51.748;19.390;2022-10-16T15:01:17;19.30;99.90
22132;DHT22;11232;51.748;19.390;2022-10-16T15:03:43;19.20;99.90
22132;DHT22;11232;51.748;19.390;2022-10-16T15:06:14;19.20;99.90
22132;DHT22;11232;51.748;19.390;2022-10-16T15:08:40;19.20;99.90
22132;DHT22;11232;51.748;19.390;2022-10-16T15:11:11;19.20;99.90
22132;DHT22;11232;51.748;19.390;2022-10-16T15:13:37;19.10;99.90
22132;DHT22;11232;51.748;19.390;2022-10-16T15:16:03;19.10;99.90
22132;DHT22;11232;51.748;19.390;2022-10-16T15:18:28;19.00;99.90
22132;DHT22;11232;51.748;19.390;2022-10-16T15:20:54;18.90;99.90
22132;DHT22;11232;51.748;19.390;2022-10-16T15:23:21;18.80;99.90
22132;DHT22;11232;51.748;19.390;2022-10-16T15:25:52;18.80;99.90
22132;DHT22;11232;51.748;19.390;2022-10-16T15:28:19;18.70;99.90
22132;DHT22;11232;51.748;19.390;2022-10-16T15:30:45;18.60;99.90
22132;DHT22;11232;51.748;19.390;2022-10-16T15:33:20;18.50;99.90
22132;DHT22;11232;51.748;19.390;2022-10-16T15:35:47;18.70;99.90
22132;DHT22;11232;51.748;19.390;2022-10-16T15:38:13;18.40;99.90
22132;DHT22;11232;51.748;19.390;2022-10-16T15:40:40;18.40;99.90
22132;DHT22;11232;51.748;19.390;2022-10-16T15:43:06;18.30;99.90
22132;DHT22;11232;51.748;19.390;2022-10-16T15:45:32;18.30;99.90
22132;DHT22;11232;51.748;19.390;2022-10-16T15:47:57;18.20;99.90
22132;DHT22;11232;51.748;19.390;2022-10-16T15:50:23;18.20;99.90
22132;DHT22;11232;51.748;19.390;2022-10-16T15:52:50;18.10;99.90
22132;DHT22;11232;51.748;19.390;2022-10-16T15:55:15;18.10;99.90
22132;DHT22;11232;51.748;19.390;2022-10-16T15:57:42;18.00;99.90
22132;DHT22;11232;51.748;19.390;2022-10-16T16:00:16;17.90;99.90
22132;DHT22;11232;51.748;19.390;2022-10-16T16:02:43;17.90;99.90
22132;DHT22;11232;51.748;19.390;2022-10-16T16:05:10;17.80;99.90
22132;DHT22;11232;51.748;19.390;2022-10-16T16:07:37;17.70;99.90
22132;DHT22;11232;51.748;19.390;2022-10-16T16:10:04;17.60;99.90
22132;DHT22;11232;51.748;19.390;2022-10-16T16:12:31;17.50;99.90
22132;DHT22;11232;51.748;19.390;2022-10-16T16:14:56;17.50;99.90
22132;DHT22;11232;51.748;19.390;2022-10-16T16:17:22;17.50;99.90
22132;DHT22;11232;51.748;19.390;2022-10-16T16:19:48;17.40;99.90
22132;DHT22;11232;51.748;19.390;2022-10-16T16:22:14;17.40;99.90
22132;DHT22;11232;51.748;19.390;2022-10-16T16:24:40;17.40;99.90
22132;DHT22;11232;51.748;19.390;2022-10-16T16:27:05;17.40;99.90
22132;DHT22;11232;51.748;19.390;2022-10-16T16:29:31;17.40;99.90
22132;DHT22;11232;51.748;19.390;2022-10-16T16:31:56;17.40;99.90
22132;DHT22;11232;51.748;19.390;2022-10-16T16:34:25;17.40;99.90
22132;DHT22;11232;51.748;19.390;2022-10-16T16:36:51;17.30;99.90
22132;DHT22;11232;51.748;19.390;2022-10-16T16:39:17;17.30;99.90
22132;DHT22;11232;51.748;19.390;2022-10-16T16:41:43;17.30;99.90
22132;DHT22;11232;51.748;19.390;2022-10-16T16:44:11;17.20;99.90
22132;DHT22;11232;51.748;19.390;2022-10-16T16:46:37;17.20;99.90
22132;DHT22;11232;51.748;19.390;2022-10-16T16:49:05;17.20;99.90
22132;DHT22;11232;51.748;19.390;2022-10-16T16:51:31;17.10;99.90
22132;DHT22;11232;51.748;19.390;2022-10-16T16:53:57;17.10;99.90
22132;DHT22;11232;51.748;19.390;2022-10-16T16:56:24;17.10;99.90
22132;DHT22;11232;51.748;19.390;2022-10-16T16:58:52;17.10;99.90
22132;DHT22;11232;51.748;19.390;2022-10-16T17:01:18;17.10;99.90
22132;DHT22;11232;51.748;19.390;2022-10-16T17:03:45;17.10;99.90
22132;DHT22;11232;51.748;19.390;2022-10-16T17:06:12;17.20;99.90
22132;DHT22;11232;51.748;19.390;2022-10-16T17:08:38;17.10;99.90
22132;DHT22;11232;51.748;19.390;2022-10-16T17:11:05;17.20;99.90
22132;DHT22;11232;51.748;19.390;2022-10-16T17:13:34;17.10;99.90
22132;DHT22;11232;51.748;19.390;2022-10-16T17:16:04;17.10;99.90
22132;DHT22;11232;51.748;19.390;2022-10-16T17:18:30;17.10;99.90